Time;durP1;ratioP1;P1;durP2;ratioP2;P2;SDS_P1;SDS_P2;PMS_P1;PMS_P2;Temp;Humidity;BMP_temperature;BMP_pressure;BME280_temperature;BME280_humidity;BME280_pressure;Samples;Min_cycle;Max_cycle;Signal;HPM_P1;HPM_P2
2023/04/09 00:02:25;;;;;;;60.97;34.38;;;6.00;99.90;;;;;;5038694;28;20056;-53
2023/04/09 00:04:51;;;;;;;68.10;35.72;;;6.00;99.90;;;;;;5043298;28;20079;-54
2023/04/09 00:07:16;;;;;;;57.17;35.15;;;6.00;99.90;;;;;;5038230;28;20033;-55
2023/04/09 00:09:42;;;;;;;68.88;36.58;;;6.00;99.90;;;;;;5034910;28;20025;-58
2023/04/09 00:12:07;;;;;;;59.53;32.30;;;6.00;99.90;;;;;;5040166;28;20040;-55
2023/04/09 00:14:33;;;;;;;65.20;35.58;;;6.00;99.90;;;;;;5036872;28;20033;-56
2023/04/09 00:16:58;;;;;;;60.67;32.72;;;6.00;99.90;;;;;;5039326;28;20056;-57
2023/04/09 00:19:24;;;;;;;59.50;33.83;;;6.00;99.90;;;;;;5038658;28;20021;-56
2023/04/09 00:21:50;;;;;;;52.25;32.10;;;6.00;99.90;;;;;;5035684;28;20111;-55
2023/04/09 00:24:16;;;;;;;72.68;37.08;;;6.00;99.90;;;;;;5038860;28;20032;-56
2023/04/09 00:26:42;;;;;;;58.47;33.50;;;6.00;99.90;;;;;;5038081;28;20030;-52
2023/04/09 00:29:07;;;;;;;59.45;32.58;;;6.00;99.90;;;;;;5040048;28;20025;-56
2023/04/09 00:31:33;;;;;;;72.57;37.50;;;5.90;99.90;;;;;;5025315;28;20121;-56
2023/04/09 00:33:58;;;;;;;60.13;34.03;;;5.90;99.90;;;;;;5027735;28;20060;-56
2023/04/09 00:36:25;;;;;;;72.40;36.97;;;5.90;99.90;;;;;;5039589;28;20029;-57
2023/04/09 00:38:52;;;;;;;57.33;30.98;;;5.80;99.90;;;;;;5036260;28;20025;-57
2023/04/09 00:41:18;;;;;;;61.22;33.00;;;5.80;99.90;;;;;;5042126;28;20013;-59
2023/04/09 00:43:43;;;;;;;63.40;36.35;;;5.80;99.90;;;;;;5035993;28;20024;-59
2023/04/09 00:46:09;;;;;;;70.40;35.75;;;5.80;99.90;;;;;;5036715;28;20026;-59
2023/04/09 00:48:35;;;;;;;71.85;36.35;;;5.80;99.90;;;;;;5035924;28;20025;-59
2023/04/09 00:51:00;;;;;;;67.93;38.10;;;5.80;99.90;;;;;;5038014;28;20021;-59
2023/04/09 00:53:26;;;;;;;67.47;35.97;;;5.80;99.90;;;;;;5037895;28;20479;-58
2023/04/09 00:55:53;;;;;;;76.70;37.55;;;5.80;99.90;;;;;;5038943;28;20029;-58
2023/04/09 00:58:19;;;;;;;72.72;38.90;;;5.80;99.90;;;;;;5036267;28;20099;-58
2023/04/09 01:00:44;;;;;;;66.88;38.38;;;5.80;99.90;;;;;;5037018;28;20065;-57
2023/04/09 01:03:10;;;;;;;74.35;40.05;;;5.80;99.90;;;;;;5036162;28;20394;-58
2023/04/09 01:05:49;;;;;;;63.88;36.75;;;5.80;99.90;;;;;;5033382;28;20537;-58
2023/04/09 01:08:23;;;;;;;76.72;40.95;;;5.80;99.90;;;;;;5031337;28;20116;-56
2023/04/09 01:11:00;;;;;;;71.25;39.40;;;5.70;99.90;;;;;;5038339;28;20036;-58
2023/04/09 01:13:46;;;;;;;75.40;38.13;;;5.70;99.90;;;;;;5038860;28;20028;-57
2023/04/09 01:16:15;;;;;;;75.50;39.42;;;5.80;99.90;;;;;;5036131;28;20141;-57
2023/04/09 01:18:51;;;;;;;72.60;37.65;;;5.80;99.90;;;;;;5036903;28;20029;-57
2023/04/09 01:21:21;;;;;;;71.20;37.17;;;5.80;99.90;;;;;;5033312;28;20065;-58
2023/04/09 01:24:14;;;;;;;70.05;37.47;;;5.80;99.90;;;;;;5033996;28;20424;-58
2023/04/09 01:27:04;;;;;;;76.78;37.83;;;5.80;99.90;;;;;;5033675;28;20510;-57
2023/04/09 01:29:32;;;;;;;77.30;38.55;;;5.80;99.90;;;;;;5017658;28;20022;-58
2023/04/09 01:32:00;;;;;;;74.85;41.03;;;5.80;99.90;;;;;;5036225;28;20149;-58
2023/04/09 01:34:28;;;;;;;68.53;37.25;;;5.80;99.90;;;;;;5025103;28;20060;-57
2023/04/09 01:36:57;;;;;;;71.30;38.33;;;5.80;99.90;;;;;;5036345;28;20487;-58
2023/04/09 01:39:23;;;;;;;77.78;36.88;;;5.80;99.90;;;;;;5040887;28;20124;-54
2023/04/09 01:41:50;;;;;;;82.85;40.88;;;5.80;99.90;;;;;;5033217;28;20116;-58
2023/04/09 01:44:18;;;;;;;75.93;38.72;;;5.80;99.90;;;;;;5030677;28;20033;-59
2023/04/09 01:46:45;;;;;;;71.32;37.78;;;5.80;99.90;;;;;;5038199;28;20486;-57
2023/04/09 01:49:11;;;;;;;74.05;39.38;;;5.80;99.90;;;;;;5039262;28;20033;-59
2023/04/09 01:51:37;;;;;;;74.15;38.90;;;5.80;99.90;;;;;;5030106;28;20782;-59
2023/04/09 01:54:03;;;;;;;67.13;37.30;;;5.80;99.90;;;;;;5035413;28;20087;-58
2023/04/09 01:56:46;;;;;;;68.07;35.58;;;5.80;99.90;;;;;;5039093;28;20021;-58
2023/04/09 01:59:12;;;;;;;79.10;37.90;;;5.80;99.90;;;;;;5025118;28;20176;-57
2023/04/09 02:01:41;;;;;;;87.95;42.65;;;5.80;99.90;;;;;;5039385;28;20504;-58
2023/04/09 02:04:16;;;;;;;78.32;41.22;;;5.80;99.90;;;;;;5038315;28;20022;-57
2023/04/09 02:06:49;;;;;;;64.13;34.85;;;5.80;99.90;;;;;;5040453;28;20025;-57
2023/04/09 02:09:17;;;;;;;70.00;38.83;;;5.80;99.90;;;;;;5035215;28;20041;-59
2023/04/09 02:11:45;;;;;;;65.47;35.47;;;5.80;99.90;;;;;;5034505;28;20024;-59
2023/04/09 02:14:11;;;;;;;68.38;35.65;;;5.80;99.90;;;;;;5034689;28;20028;-57
2023/04/09 02:16:37;;;;;;;71.30;35.88;;;5.80;99.90;;;;;;5037857;28;20021;-58
2023/04/09 02:19:03;;;;;;;64.85;35.67;;;5.80;99.90;;;;;;5031813;28;20654;-56
2023/04/09 02:21:30;;;;;;;70.30;38.42;;;5.80;99.90;;;;;;5035546;28;20080;-58
2023/04/09 02:23:56;;;;;;;75.50;37.17;;;5.80;99.90;;;;;;5035087;28;20088;-58
2023/04/09 02:26:22;;;;;;;71.50;34.58;;;5.80;99.90;;;;;;5024606;28;20434;-58
2023/04/09 02:28:48;;;;;;;69.63;35.70;;;5.80;99.90;;;;;;5035279;28;20021;-55
2023/04/09 02:31:14;;;;;;;70.80;35.72;;;5.80;99.90;;;;;;5026953;28;20045;-56
2023/04/09 02:33:39;;;;;;;64.45;35.97;;;5.80;99.90;;;;;;5029659;28;20068;-58
2023/04/09 02:36:05;;;;;;;74.07;36.35;;;5.80;99.90;;;;;;5029106;28;20402;-59
2023/04/09 02:38:31;;;;;;;74.82;36.67;;;5.80;99.90;;;;;;5036340;28;20033;-57
2023/04/09 02:40:57;;;;;;;72.50;34.53;;;5.80;99.90;;;;;;5042049;28;20446;-57
2023/04/09 02:43:23;;;;;;;71.28;35.45;;;5.80;99.90;;;;;;5036345;28;20033;-58
2023/04/09 02:45:48;;;;;;;75.78;39.10;;;5.80;99.90;;;;;;5033492;28;20018;-56
2023/04/09 02:48:14;;;;;;;71.68;35.78;;;5.80;99.90;;;;;;5038401;28;20033;-59
2023/04/09 02:50:39;;;;;;;80.70;37.45;;;5.80;99.90;;;;;;5032457;28;20566;-58
2023/04/09 02:53:05;;;;;;;69.00;35.40;;;5.80;99.90;;;;;;5038392;28;20037;-57
2023/04/09 02:55:31;;;;;;;68.38;34.35;;;5.80;99.90;;;;;;5032180;28;20030;-58
2023/04/09 02:57:57;;;;;;;72.82;35.53;;;5.80;99.90;;;;;;5040901;28;20509;-59
2023/04/09 03:00:22;;;;;;;70.88;33.95;;;5.80;99.90;;;;;;5031354;28;20057;-58
2023/04/09 03:02:48;;;;;;;60.58;31.58;;;5.80;99.90;;;;;;5027495;28;20061;-58
2023/04/09 03:05:13;;;;;;;70.90;34.45;;;5.80;99.90;;;;;;5039813;28;20063;-56
2023/04/09 03:07:39;;;;;;;66.95;33.58;;;5.80;99.90;;;;;;5042744;28;20035;-59
2023/04/09 03:10:05;;;;;;;68.63;34.17;;;5.80;99.90;;;;;;5026555;28;20025;-57
2023/04/09 03:12:30;;;;;;;76.78;37.33;;;5.80;99.90;;;;;;5032275;28;20032;-56
2023/04/09 03:14:56;;;;;;;67.88;35.42;;;5.80;99.90;;;;;;5030796;28;20049;-58
2023/04/09 03:17:24;;;;;;;69.80;36.10;;;5.80;99.90;;;;;;5037170;28;20034;-56
2023/04/09 03:19:50;;;;;;;65.72;33.90;;;5.80;99.90;;;;;;5034875;28;20452;-58
2023/04/09 03:22:15;;;;;;;58.05;31.65;;;5.80;99.90;;;;;;5043386;28;20275;-58
2023/04/09 03:24:41;;;;;;;63.80;33.63;;;5.80;99.90;;;;;;5034720;28;20037;-58
2023/04/09 03:27:06;;;;;;;66.93;32.35;;;5.80;99.90;;;;;;5028141;28;20029;-58
2023/04/09 03:29:32;;;;;;;72.38;34.70;;;5.80;99.90;;;;;;5042507;28;20531;-57
2023/04/09 03:31:57;;;;;;;73.00;36.72;;;5.80;99.90;;;;;;5030448;28;20095;-56
2023/04/09 03:34:23;;;;;;;81.65;36.35;;;5.80;99.90;;;;;;5045019;28;20108;-58
2023/04/09 03:36:49;;;;;;;72.82;37.40;;;5.80;99.90;;;;;;5029830;28;20038;-58
2023/04/09 03:39:14;;;;;;;71.30;35.72;;;5.80;99.90;;;;;;5043140;28;20024;-58
2023/04/09 03:41:40;;;;;;;68.55;35.17;;;5.80;99.90;;;;;;5030341;28;20214;-58
2023/04/09 03:44:05;;;;;;;73.07;34.92;;;5.80;99.90;;;;;;5019672;28;20514;-59
2023/04/09 03:46:31;;;;;;;75.45;35.15;;;5.80;99.90;;;;;;5036227;28;20044;-59
2023/04/09 03:48:56;;;;;;;71.00;36.20;;;5.80;99.90;;;;;;5038528;28;20030;-57
2023/04/09 03:51:22;;;;;;;76.65;34.60;;;5.80;99.90;;;;;;5039085;28;20508;-57
2023/04/09 03:53:47;;;;;;;81.57;38.65;;;5.80;99.90;;;;;;5037374;28;20023;-59
2023/04/09 03:56:13;;;;;;;70.28;32.47;;;5.70;99.90;;;;;;5037928;28;20044;-57
2023/04/09 03:58:38;;;;;;;71.60;34.30;;;5.70;99.90;;;;;;5041074;28;20025;-58
2023/04/09 04:01:04;;;;;;;83.40;39.85;;;5.70;99.90;;;;;;5040222;28;20025;-57
2023/04/09 04:03:30;;;;;;;73.68;36.47;;;5.70;99.90;;;;;;5043094;28;20429;-56
2023/04/09 04:06:02;;;;;;;87.25;39.08;;;5.70;99.90;;;;;;5039744;28;20064;-57
2023/04/09 04:08:28;;;;;;;74.68;36.80;;;5.70;99.90;;;;;;5043989;28;20025;-58
2023/04/09 04:10:54;;;;;;;78.30;36.72;;;5.70;99.90;;;;;;5038378;28;20029;-57
2023/04/09 04:13:20;;;;;;;76.95;37.60;;;5.60;99.90;;;;;;5045731;28;20021;-59
2023/04/09 04:15:46;;;;;;;75.45;37.13;;;5.70;99.90;;;;;;5040054;28;20025;-59
2023/04/09 04:18:11;;;;;;;78.20;36.97;;;5.70;99.90;;;;;;5042700;28;20025;-58
2023/04/09 04:20:37;;;;;;;74.70;34.88;;;5.70;99.90;;;;;;5042317;28;20017;-55
2023/04/09 04:23:04;;;;;;;81.53;37.88;;;5.70;99.90;;;;;;5039998;28;20025;-59
2023/04/09 04:25:30;;;;;;;81.53;37.35;;;5.70;99.90;;;;;;5036142;28;20033;-56
2023/04/09 04:27:55;;;;;;;77.65;36.58;;;5.70;99.90;;;;;;5038809;28;20105;-58
2023/04/09 04:30:21;;;;;;;76.80;37.92;;;5.70;99.90;;;;;;5040952;28;20111;-58
2023/04/09 04:32:47;;;;;;;75.75;34.30;;;5.70;99.90;;;;;;5032321;28;20045;-59
2023/04/09 04:35:13;;;;;;;79.97;34.40;;;5.70;99.90;;;;;;5043006;28;20549;-59
2023/04/09 04:37:39;;;;;;;68.07;33.78;;;5.70;99.90;;;;;;5040245;28;20483;-58
2023/04/09 04:40:06;;;;;;;66.85;31.92;;;5.60;99.90;;;;;;5028953;28;20025;-57
2023/04/09 04:42:32;;;;;;;71.07;32.42;;;5.60;99.90;;;;;;5034174;28;20020;-58
2023/04/09 04:44:58;;;;;;;66.38;31.65;;;5.70;99.90;;;;;;5038302;28;20112;-57
2023/04/09 04:47:24;;;;;;;74.47;32.80;;;5.70;99.90;;;;;;5027648;28;20105;-57
2023/04/09 04:49:49;;;;;;;65.05;31.23;;;5.70;99.90;;;;;;5037996;28;20021;-58
2023/04/09 04:52:15;;;;;;;62.70;31.85;;;5.60;99.90;;;;;;5036211;28;20056;-59
2023/04/09 04:54:40;;;;;;;70.55;31.02;;;5.60;99.90;;;;;;5034190;28;20041;-57
2023/04/09 04:57:06;;;;;;;68.50;31.73;;;5.60;99.90;;;;;;5036234;28;20367;-58
2023/04/09 04:59:32;;;;;;;59.83;29.27;;;5.60;99.90;;;;;;5041152;28;20017;-57
2023/04/09 05:01:57;;;;;;;63.42;31.45;;;5.60;99.90;;;;;;5032939;28;20037;-58
2023/04/09 05:04:23;;;;;;;68.05;30.55;;;5.60;99.90;;;;;;5041480;28;20032;-59
2023/04/09 05:06:49;;;;;;;59.90;28.90;;;5.60;99.90;;;;;;5040625;28;20029;-58
2023/04/09 05:09:14;;;;;;;66.32;31.00;;;5.60;99.90;;;;;;5037253;28;20032;-57
2023/04/09 05:11:40;;;;;;;58.08;28.40;;;5.50;99.90;;;;;;5043884;28;20068;-57
2023/04/09 05:14:06;;;;;;;57.60;28.30;;;5.60;99.90;;;;;;5037407;28;20021;-58
2023/04/09 05:16:31;;;;;;;55.83;27.02;;;5.60;99.90;;;;;;5036136;28;20029;-58
2023/04/09 05:18:57;;;;;;;66.40;29.30;;;5.60;99.90;;;;;;5038587;28;20055;-59
2023/04/09 05:21:22;;;;;;;57.78;27.30;;;5.60;99.90;;;;;;5022238;28;20035;-58
2023/04/09 05:23:48;;;;;;;63.53;30.88;;;5.70;99.90;;;;;;5033004;28;20095;-57
2023/04/09 05:26:14;;;;;;;55.70;27.90;;;5.70;99.90;;;;;;5036330;28;20025;-59
2023/04/09 05:28:40;;;;;;;58.40;27.65;;;5.70;99.90;;;;;;5041012;28;20628;-58
2023/04/09 05:31:11;;;;;;;54.20;27.52;;;5.70;99.90;;;;;;5026019;28;20025;-59
2023/04/09 05:33:37;;;;;;;54.10;26.02;;;5.80;99.90;;;;;;5037145;28;20025;-58
2023/04/09 05:36:03;;;;;;;56.28;26.80;;;5.80;99.90;;;;;;5038795;28;20360;-56
2023/04/09 05:38:28;;;;;;;45.70;25.80;;;5.80;99.90;;;;;;5034549;28;20254;-59
2023/04/09 05:40:54;;;;;;;54.15;27.00;;;5.80;99.90;;;;;;5039764;28;20025;-59
2023/04/09 05:43:20;;;;;;;50.95;25.45;;;5.80;99.90;;;;;;5033546;28;20136;-58
2023/04/09 05:45:46;;;;;;;54.60;27.60;;;5.90;99.90;;;;;;5036472;28;20025;-57
2023/04/09 05:48:11;;;;;;;49.13;25.95;;;5.90;99.90;;;;;;5038913;28;20562;-59
2023/04/09 05:50:37;;;;;;;52.10;25.77;;;5.90;99.90;;;;;;5034078;28;20487;-55
2023/04/09 05:53:03;;;;;;;53.70;25.63;;;5.90;99.90;;;;;;5037618;28;20096;-59
2023/04/09 05:55:30;;;;;;;60.05;27.85;;;5.90;99.90;;;;;;5035536;28;20024;-55
2023/04/09 05:57:56;;;;;;;52.17;26.30;;;5.90;99.90;;;;;;5042736;28;20032;-59
2023/04/09 06:00:21;;;;;;;49.42;25.65;;;5.90;99.90;;;;;;5035337;28;20048;-59
2023/04/09 06:02:47;;;;;;;50.92;26.80;;;5.90;99.90;;;;;;5032199;28;20550;-57
2023/04/09 06:05:12;;;;;;;48.38;25.90;;;6.00;99.90;;;;;;5038101;28;20401;-59
2023/04/09 06:07:38;;;;;;;50.70;27.48;;;6.00;99.90;;;;;;5040604;28;20028;-59
2023/04/09 06:10:04;;;;;;;45.63;24.65;;;6.00;99.90;;;;;;5029068;28;20036;-58
2023/04/09 06:12:30;;;;;;;55.72;29.25;;;6.00;99.90;;;;;;5033138;28;20071;-59
2023/04/09 06:14:55;;;;;;;50.15;25.48;;;6.00;99.90;;;;;;5038330;28;20018;-58
2023/04/09 06:17:21;;;;;;;45.92;26.17;;;6.10;99.90;;;;;;5037032;28;20050;-55
2023/04/09 06:19:46;;;;;;;50.63;26.70;;;6.10;99.90;;;;;;5034124;28;20022;-58
2023/04/09 06:22:12;;;;;;;51.45;24.95;;;6.20;99.90;;;;;;5039049;28;20033;-59
2023/04/09 06:24:37;;;;;;;55.05;27.83;;;6.20;99.90;;;;;;5036001;28;20036;-54
2023/04/09 06:27:03;;;;;;;50.42;26.88;;;6.30;99.90;;;;;;5039428;28;20029;-56
2023/04/09 06:29:28;;;;;;;52.55;26.38;;;6.30;99.90;;;;;;5039702;28;20022;-58
2023/04/09 06:31:54;;;;;;;44.90;26.38;;;6.30;99.90;;;;;;5036125;28;20041;-59
2023/04/09 06:34:20;;;;;;;49.35;25.50;;;6.40;99.90;;;;;;5041533;28;20032;-55
2023/04/09 06:36:45;;;;;;;45.13;23.08;;;6.40;99.90;;;;;;5036171;28;20033;-57
2023/04/09 06:39:11;;;;;;;42.42;22.98;;;6.40;99.90;;;;;;5024523;28;20046;-55
2023/04/09 06:41:37;;;;;;;40.10;21.45;;;6.50;99.90;;;;;;5025060;28;20096;-57
2023/04/09 06:44:02;;;;;;;44.65;24.35;;;6.50;99.90;;;;;;5039039;28;20036;-56
2023/04/09 06:46:28;;;;;;;43.67;22.45;;;6.50;99.90;;;;;;5037249;28;20033;-59
2023/04/09 06:48:53;;;;;;;41.20;22.13;;;6.60;99.90;;;;;;5040043;28;20036;-57
2023/04/09 06:51:19;;;;;;;43.65;24.83;;;6.60;99.90;;;;;;5041163;28;20021;-57
2023/04/09 06:53:46;;;;;;;40.30;23.42;;;6.70;99.90;;;;;;5040219;28;20080;-59
2023/04/09 06:56:12;;;;;;;39.15;22.48;;;6.70;99.90;;;;;;5037650;28;20021;-55
2023/04/09 06:58:37;;;;;;;41.78;23.60;;;6.70;99.90;;;;;;5041646;28;20373;-57
2023/04/09 07:01:03;;;;;;;42.33;23.83;;;6.80;99.90;;;;;;5034950;28;20140;-58
2023/04/09 07:03:29;;;;;;;39.63;23.55;;;6.80;99.90;;;;;;5043573;28;20037;-59
2023/04/09 07:05:56;;;;;;;41.28;22.25;;;6.90;99.90;;;;;;5033134;28;20039;-59
2023/04/09 07:08:22;;;;;;;39.58;22.42;;;6.90;99.90;;;;;;5043588;28;20033;-56
2023/04/09 07:10:48;;;;;;;41.35;24.10;;;6.90;99.90;;;;;;5038734;28;20091;-57
2023/04/09 07:13:13;;;;;;;39.63;23.38;;;6.90;99.90;;;;;;5030635;28;20071;-56
2023/04/09 07:15:39;;;;;;;38.03;20.83;;;6.90;99.90;;;;;;5033465;28;20442;-57
2023/04/09 07:18:05;;;;;;;39.85;23.58;;;6.90;99.90;;;;;;5035708;28;20414;-57
2023/04/09 07:20:30;;;;;;;36.67;22.13;;;6.90;99.90;;;;;;5042048;28;20134;-58
2023/04/09 07:22:56;;;;;;;45.42;23.95;;;6.90;99.90;;;;;;5033911;28;20112;-60
2023/04/09 07:25:21;;;;;;;46.05;23.55;;;6.90;99.90;;;;;;5037377;28;20071;-58
2023/04/09 07:27:48;;;;;;;45.15;24.30;;;6.90;99.90;;;;;;5037459;28;20483;-58
2023/04/09 07:30:14;;;;;;;42.22;23.73;;;6.90;99.90;;;;;;5039471;28;20036;-55
2023/04/09 07:32:40;;;;;;;43.22;23.27;;;6.90;99.90;;;;;;5024429;28;20025;-59
2023/04/09 07:35:08;;;;;;;40.55;23.98;;;6.90;99.90;;;;;;5033232;28;20075;-56
2023/04/09 07:37:34;;;;;;;41.72;22.80;;;7.00;99.90;;;;;;5033658;28;20018;-58
2023/04/09 07:40:00;;;;;;;39.75;23.27;;;7.00;99.90;;;;;;5030681;28;20104;-59
2023/04/09 07:42:27;;;;;;;45.63;23.40;;;7.10;99.90;;;;;;5031212;28;20033;-58
2023/04/09 07:44:52;;;;;;;39.58;21.90;;;7.10;99.90;;;;;;5032873;28;20017;-54
2023/04/09 07:47:18;;;;;;;38.35;22.90;;;7.10;99.90;;;;;;5030819;28;20029;-58
2023/04/09 07:49:43;;;;;;;42.65;24.17;;;7.10;99.90;;;;;;5032595;28;20426;-58
2023/04/09 07:52:09;;;;;;;41.35;20.60;;;7.20;99.90;;;;;;5032516;28;20025;-56
2023/04/09 07:54:35;;;;;;;40.53;21.08;;;7.30;99.90;;;;;;5033789;28;20022;-58
2023/04/09 07:57:00;;;;;;;33.70;19.75;;;7.30;99.90;;;;;;5031080;28;20195;-58
2023/04/09 07:59:26;;;;;;;44.03;23.70;;;7.30;99.90;;;;;;5030024;28;20457;-57
2023/04/09 08:01:52;;;;;;;44.38;24.42;;;7.40;99.90;;;;;;5031678;28;20530;-55
2023/04/09 08:04:18;;;;;;;39.40;23.77;;;7.40;99.90;;;;;;5031706;28;20051;-58
2023/04/09 08:06:49;;;;;;;36.80;22.10;;;7.50;99.90;;;;;;5029026;28;20417;-56
2023/04/09 08:09:19;;;;;;;34.33;21.85;;;7.50;99.90;;;;;;5025860;28;20530;-58
2023/04/09 08:11:44;;;;;;;34.25;21.83;;;7.60;99.90;;;;;;5034423;28;20035;-56
2023/04/09 08:14:14;;;;;;;34.45;19.60;;;7.60;99.90;;;;;;5043338;28;20017;-55
2023/04/09 08:16:42;;;;;;;33.15;20.17;;;7.60;99.90;;;;;;5042727;28;20390;-56
2023/04/09 08:19:08;;;;;;;33.60;19.27;;;7.60;99.90;;;;;;5033136;28;20415;-56
2023/04/09 08:21:42;;;;;;;28.88;19.25;;;7.70;99.90;;;;;;5031513;28;20041;-54
2023/04/09 08:24:11;;;;;;;35.60;21.10;;;7.70;99.90;;;;;;5031913;28;20536;-55
2023/04/09 08:26:38;;;;;;;29.73;18.45;;;7.80;99.90;;;;;;5034902;28;20036;-66
2023/04/09 08:29:04;;;;;;;32.83;19.45;;;7.80;99.90;;;;;;5043970;28;20116;-58
2023/04/09 08:31:30;;;;;;;34.83;20.23;;;7.90;99.90;;;;;;5035359;28;20121;-59
2023/04/09 08:33:55;;;;;;;33.20;20.35;;;7.90;99.90;;;;;;5045942;28;20029;-58
2023/04/09 08:36:21;;;;;;;37.85;21.58;;;7.80;99.90;;;;;;5031199;28;20064;-57
2023/04/09 08:38:47;;;;;;;35.60;20.75;;;7.80;99.90;;;;;;5032531;28;20032;-55
2023/04/09 08:41:21;;;;;;;33.88;19.67;;;7.70;99.90;;;;;;5037422;28;20115;-56
2023/04/09 08:43:47;;;;;;;30.63;19.08;;;7.70;99.90;;;;;;5037767;28;20483;-57
2023/04/09 08:46:17;;;;;;;30.98;18.02;;;7.70;99.90;;;;;;5040805;28;20039;-56
2023/04/09 08:48:45;;;;;;;31.85;18.98;;;7.70;99.90;;;;;;5038404;28;20041;-57
2023/04/09 08:51:19;;;;;;;36.45;21.88;;;7.70;99.90;;;;;;5042421;28;20033;-53
2023/04/09 08:53:46;;;;;;;32.63;19.95;;;7.70;99.90;;;;;;5034011;28;20091;-56
2023/04/09 08:56:13;;;;;;;27.60;18.23;;;7.70;99.90;;;;;;5037756;28;20017;-57
2023/04/09 08:58:45;;;;;;;31.80;19.70;;;7.70;99.90;;;;;;5039226;28;20100;-57
2023/04/09 09:01:25;;;;;;;32.00;19.58;;;7.60;99.90;;;;;;5026631;28;20056;-52
2023/04/09 09:04:02;;;;;;;31.27;18.50;;;7.50;99.90;;;;;;5039509;28;20034;-54
2023/04/09 09:06:34;;;;;;;30.95;19.02;;;7.50;99.90;;;;;;5041667;28;20048;-57
2023/04/09 09:09:13;;;;;;;31.20;19.45;;;7.60;99.90;;;;;;5038113;28;20038;-55
2023/04/09 09:11:51;;;;;;;33.45;18.77;;;7.60;99.90;;;;;;5038831;28;20156;-59
2023/04/09 09:14:18;;;;;;;27.85;17.20;;;7.60;99.90;;;;;;5035946;28;20002;-57
2023/04/09 09:17:02;;;;;;;30.17;19.13;;;7.70;99.90;;;;;;5032925;28;20120;-59
2023/04/09 09:19:32;;;;;;;33.92;19.65;;;7.70;99.90;;;;;;5038327;28;20339;-56
2023/04/09 09:22:00;;;;;;;31.67;19.42;;;7.80;99.90;;;;;;5039048;28;20391;-59
2023/04/09 09:24:26;;;;;;;33.08;19.55;;;7.90;99.90;;;;;;5040454;28;20033;-57
2023/04/09 09:26:53;;;;;;;30.35;18.17;;;7.90;99.90;;;;;;5038448;28;20033;-53
2023/04/09 09:29:19;;;;;;;36.30;20.42;;;7.90;99.90;;;;;;5041478;28;20227;-56
2023/04/09 09:31:48;;;;;;;34.05;22.23;;;7.90;99.90;;;;;;5031498;28;20044;-56
2023/04/09 09:34:14;;;;;;;35.80;20.65;;;7.90;99.90;;;;;;5040466;28;20074;-59
2023/04/09 09:36:40;;;;;;;30.83;18.88;;;7.90;99.90;;;;;;5036970;28;20021;-58
2023/04/09 09:39:12;;;;;;;31.63;18.83;;;7.80;99.90;;;;;;5038595;28;20044;-58
2023/04/09 09:41:38;;;;;;;32.05;19.02;;;7.90;99.90;;;;;;5028132;28;20033;-59
2023/04/09 09:44:06;;;;;;;34.33;19.25;;;8.00;99.90;;;;;;5039948;28;20017;-60
2023/04/09 09:46:39;;;;;;;29.92;19.75;;;8.00;99.90;;;;;;5039120;28;20701;-57
2023/04/09 09:49:06;;;;;;;32.88;19.08;;;8.10;99.90;;;;;;5033905;28;20497;-59
2023/04/09 09:51:33;;;;;;;34.63;20.17;;;8.20;99.90;;;;;;5034324;28;20025;-58
2023/04/09 09:53:58;;;;;;;31.52;18.70;;;8.30;99.90;;;;;;5038008;28;20186;-59
2023/04/09 09:56:33;;;;;;;32.03;18.70;;;8.30;99.90;;;;;;5034673;28;20522;-59
2023/04/09 09:59:16;;;;;;;32.13;19.65;;;8.30;99.90;;;;;;5038066;28;20036;-58
2023/04/09 10:01:42;;;;;;;28.60;16.83;;;8.40;99.90;;;;;;5036327;28;20044;-58
2023/04/09 10:04:13;;;;;;;28.80;18.88;;;8.50;99.90;;;;;;5040170;28;20130;-56
2023/04/09 10:06:42;;;;;;;29.00;17.95;;;8.60;99.90;;;;;;5037474;28;20059;-59
2023/04/09 10:09:08;;;;;;;26.98;16.85;;;8.50;99.90;;;;;;5024659;28;20143;-58
2023/04/09 10:11:35;;;;;;;30.00;17.58;;;8.40;99.90;;;;;;5039945;28;20505;-58
2023/04/09 10:14:02;;;;;;;27.02;17.30;;;8.50;99.90;;;;;;5037184;28;20869;-59
2023/04/09 10:16:28;;;;;;;31.23;19.02;;;8.60;99.90;;;;;;5027012;28;20055;-59
2023/04/09 10:18:57;;;;;;;31.05;19.40;;;8.70;99.90;;;;;;5039918;28;20095;-59
2023/04/09 10:21:23;;;;;;;30.40;18.08;;;8.60;99.90;;;;;;5032445;28;20040;-58
2023/04/09 10:23:49;;;;;;;30.23;18.55;;;8.60;99.90;;;;;;5042053;28;20511;-59
2023/04/09 10:26:17;;;;;;;28.20;18.83;;;8.50;99.90;;;;;;5033505;28;20029;-59
2023/04/09 10:28:43;;;;;;;32.97;18.77;;;8.50;99.90;;;;;;5043000;28;20024;-59
2023/04/09 10:31:08;;;;;;;28.02;17.83;;;8.50;99.90;;;;;;5031867;28;20402;-58
2023/04/09 10:33:37;;;;;;;32.25;18.73;;;8.50;99.90;;;;;;5041872;28;20036;-58
2023/04/09 10:36:11;;;;;;;32.28;19.80;;;8.50;99.90;;;;;;5032116;28;20138;-58
2023/04/09 10:38:37;;;;;;;28.65;18.80;;;8.60;99.90;;;;;;5036306;28;20053;-59
2023/04/09 10:41:09;;;;;;;30.05;19.02;;;8.60;99.90;;;;;;5040775;28;20016;-57
2023/04/09 10:43:37;;;;;;;28.80;17.92;;;8.60;99.90;;;;;;5031669;28;20018;-57
2023/04/09 10:46:24;;;;;;;27.95;17.35;;;8.60;99.90;;;;;;5042990;28;20021;-59
2023/04/09 10:49:07;;;;;;;31.48;19.30;;;8.70;99.90;;;;;;5034191;28;20089;-58
2023/04/09 10:51:38;;;;;;;29.27;18.33;;;8.70;99.90;;;;;;5039753;28;20022;-59
2023/04/09 10:54:32;;;;;;;30.17;19.38;;;8.80;99.90;;;;;;5038684;28;20419;-59
2023/04/09 10:57:10;;;;;;;27.33;18.08;;;8.70;99.90;;;;;;5030876;28;20407;-59
2023/04/09 10:59:36;;;;;;;32.40;18.95;;;8.80;99.90;;;;;;5038860;28;20017;-59
2023/04/09 11:02:04;;;;;;;33.30;21.55;;;8.80;99.90;;;;;;5030569;28;20045;-57
2023/04/09 11:04:45;;;;;;;34.25;19.90;;;8.90;99.90;;;;;;5038231;28;20025;-58
2023/04/09 11:07:14;;;;;;;33.15;18.70;;;8.90;99.90;;;;;;5022641;28;20441;-58
2023/04/09 11:09:40;;;;;;;33.53;20.42;;;8.90;99.90;;;;;;5032278;28;20024;-54
2023/04/09 11:12:06;;;;;;;33.95;19.45;;;8.90;99.90;;;;;;5039068;28;20072;-58
2023/04/09 11:14:32;;;;;;;32.95;20.65;;;9.00;99.90;;;;;;5035965;28;20025;-55
2023/04/09 11:16:58;;;;;;;34.50;19.55;;;9.00;99.90;;;;;;5039152;28;20021;-58
2023/04/09 11:19:23;;;;;;;36.55;20.83;;;9.00;99.90;;;;;;5036105;28;20433;-58
2023/04/09 11:21:49;;;;;;;37.35;21.15;;;9.00;99.90;;;;;;5029484;28;20029;-59
2023/04/09 11:24:17;;;;;;;36.22;22.23;;;9.00;99.90;;;;;;5038539;28;20403;-57
2023/04/09 11:26:43;;;;;;;32.70;19.75;;;9.00;99.90;;;;;;5036404;28;20067;-57
2023/04/09 11:29:09;;;;;;;34.13;20.33;;;9.10;99.90;;;;;;5042003;28;20112;-57
2023/04/09 11:31:35;;;;;;;34.28;21.92;;;9.20;99.90;;;;;;5028755;28;20571;-56
2023/04/09 11:34:02;;;;;;;32.42;21.60;;;9.20;99.90;;;;;;5043007;28;20552;-57
2023/04/09 11:36:28;;;;;;;33.92;20.88;;;9.20;99.90;;;;;;5038481;28;20075;-56
2023/04/09 11:38:56;;;;;;;34.92;22.73;;;9.20;99.90;;;;;;5038824;28;20441;-59
2023/04/09 11:41:37;;;;;;;34.05;22.13;;;9.20;99.90;;;;;;5039036;28;20433;-58
2023/04/09 11:44:07;;;;;;;33.55;19.90;;;9.20;99.90;;;;;;5039042;28;20096;-56
2023/04/09 11:46:37;;;;;;;34.38;20.25;;;9.20;99.90;;;;;;5039526;28;20207;-56
2023/04/09 11:49:03;;;;;;;32.78;19.50;;;9.30;99.90;;;;;;5036913;28;20102;-57
2023/04/09 11:51:30;;;;;;;32.20;20.98;;;9.30;99.90;;;;;;5037921;28;20649;-57
2023/04/09 11:54:01;;;;;;;34.90;21.77;;;9.20;99.90;;;;;;5036244;28;20415;-57
2023/04/09 11:56:31;;;;;;;36.75;22.77;;;9.20;99.90;;;;;;5041078;28;20101;-57
2023/04/09 11:58:57;;;;;;;29.83;19.95;;;9.30;99.90;;;;;;5030684;28;20051;-57
2023/04/09 12:01:23;;;;;;;35.58;20.55;;;9.40;99.90;;;;;;5041936;28;20167;-56
2023/04/09 12:03:55;;;;;;;36.45;22.52;;;9.50;99.90;;;;;;5040915;28;20108;-57
2023/04/09 12:06:23;;;;;;;36.60;21.55;;;9.70;99.90;;;;;;5042470;28;20027;-57
2023/04/09 12:08:56;;;;;;;32.25;21.52;;;9.80;99.90;;;;;;5041390;28;20383;-57
2023/04/09 12:11:27;;;;;;;33.13;20.13;;;10.00;99.90;;;;;;5041295;28;20029;-58
2023/04/09 12:14:01;;;;;;;32.53;19.90;;;10.10;99.90;;;;;;5038996;28;20108;-56
2023/04/09 12:16:40;;;;;;;36.70;23.20;;;10.20;99.90;;;;;;5039266;28;20088;-58
2023/04/09 12:19:07;;;;;;;37.55;20.95;;;10.20;99.90;;;;;;5038349;28;20071;-55
2023/04/09 12:21:50;;;;;;;31.75;20.77;;;10.20;99.90;;;;;;5038665;28;20022;-55
2023/04/09 12:24:18;;;;;;;35.75;20.05;;;10.40;99.90;;;;;;5034402;28;20018;-58
2023/04/09 12:26:45;;;;;;;34.97;20.50;;;10.50;99.90;;;;;;5033246;28;20482;-53
2023/04/09 12:29:12;;;;;;;29.88;19.98;;;10.50;99.90;;;;;;5031856;28;20565;-58
2023/04/09 12:31:37;;;;;;;33.25;20.20;;;10.60;99.90;;;;;;5027256;28;20042;-57
2023/04/09 12:34:03;;;;;;;31.33;19.85;;;10.70;99.90;;;;;;5045597;28;20828;-58
2023/04/09 12:36:28;;;;;;;25.83;18.42;;;10.80;99.90;;;;;;5028657;28;20029;-57
2023/04/09 12:38:54;;;;;;;31.58;19.50;;;11.00;99.90;;;;;;5040010;28;20568;-57